sensor_id;sensor_type;location;lat;lon;timestamp;P1;durP1;ratioP1;P2;durP2;ratioP2
50219;SDS011;36110;51.536;7.562;2022-10-19T00:00:22;1.48;;;1.38;;
50219;SDS011;36110;51.536;7.562;2022-10-19T00:02:48;1.58;;;1.48;;
50219;SDS011;36110;51.536;7.562;2022-10-19T00:05:13;1.30;;;1.20;;
50219;SDS011;36110;51.536;7.562;2022-10-19T00:07:39;1.70;;;1.60;;
50219;SDS011;36110;51.536;7.562;2022-10-19T00:10:04;2.42;;;1.33;;
50219;SDS011;36110;51.536;7.562;2022-10-19T00:12:29;1.40;;;1.30;;
50219;SDS011;36110;51.536;7.562;2022-10-19T00:14:55;1.73;;;1.63;;
50219;SDS011;36110;51.536;7.562;2022-10-19T00:17:20;1.60;;;1.50;;
50219;SDS011;36110;51.536;7.562;2022-10-19T00:19:46;1.65;;;1.40;;
50219;SDS011;36110;51.536;7.562;2022-10-19T00:22:11;1.63;;;1.52;;
50219;SDS011;36110;51.536;7.562;2022-10-19T00:24:36;1.77;;;1.45;;
50219;SDS011;36110;51.536;7.562;2022-10-19T00:27:02;1.60;;;1.50;;
50219;SDS011;36110;51.536;7.562;2022-10-19T00:29:27;1.50;;;1.40;;
50219;SDS011;36110;51.536;7.562;2022-10-19T00:31:52;1.77;;;1.38;;
50219;SDS011;36110;51.536;7.562;2022-10-19T00:34:18;1.58;;;1.48;;
50219;SDS011;36110;51.536;7.562;2022-10-19T00:36:43;1.30;;;1.20;;
50219;SDS011;36110;51.536;7.562;2022-10-19T00:39:10;1.77;;;1.40;;
50219;SDS011;36110;51.536;7.562;2022-10-19T00:41:37;2.75;;;1.58;;
50219;SDS011;36110;51.536;7.562;2022-10-19T00:44:53;1.83;;;1.42;;
50219;SDS011;36110;51.536;7.562;2022-10-19T00:46:53;1.58;;;1.48;;
50219;SDS011;36110;51.536;7.562;2022-10-19T00:49:24;1.13;;;1.10;;
50219;SDS011;36110;51.536;7.562;2022-10-19T00:51:53;2.88;;;1.40;;
50219;SDS011;36110;51.536;7.562;2022-10-19T00:54:20;1.45;;;1.20;;
50219;SDS011;36110;51.536;7.562;2022-10-19T00:56:46;1.70;;;1.48;;
50219;SDS011;36110;51.536;7.562;2022-10-19T00:59:14;1.67;;;1.40;;
50219;SDS011;36110;51.536;7.562;2022-10-19T01:01:40;1.40;;;1.25;;
50219;SDS011;36110;51.536;7.562;2022-10-19T01:04:06;1.52;;;1.30;;
50219;SDS011;36110;51.536;7.562;2022-10-19T01:06:32;1.60;;;1.40;;
50219;SDS011;36110;51.536;7.562;2022-10-19T01:08:58;1.25;;;1.15;;
50219;SDS011;36110;51.536;7.562;2022-10-19T01:14:13;1.45;;;1.35;;
50219;SDS011;36110;51.536;7.562;2022-10-19T01:16:54;2.70;;;1.45;;
50219;SDS011;36110;51.536;7.562;2022-10-19T01:19:41;2.15;;;1.40;;
50219;SDS011;36110;51.536;7.562;2022-10-19T01:22:25;1.33;;;1.23;;
50219;SDS011;36110;51.536;7.562;2022-10-19T01:27:43;1.40;;;1.30;;
50219;SDS011;36110;51.536;7.562;2022-10-19T01:30:44;1.40;;;1.30;;
50219;SDS011;36110;51.536;7.562;2022-10-19T01:36:42;1.48;;;1.13;;
50219;SDS011;36110;51.536;7.562;2022-10-19T01:39:21;2.03;;;1.30;;
50219;SDS011;36110;51.536;7.562;2022-10-19T01:44:44;1.60;;;1.30;;
50219;SDS011;36110;51.536;7.562;2022-10-19T01:47:14;1.30;;;1.20;;
50219;SDS011;36110;51.536;7.562;2022-10-19T01:49:47;1.38;;;1.25;;
50219;SDS011;36110;51.536;7.562;2022-10-19T01:52:15;1.40;;;1.30;;
50219;SDS011;36110;51.536;7.562;2022-10-19T01:54:44;1.40;;;1.30;;
50219;SDS011;36110;51.536;7.562;2022-10-19T01:57:13;1.60;;;1.50;;
50219;SDS011;36110;51.536;7.562;2022-10-19T01:59:43;1.35;;;1.25;;
50219;SDS011;36110;51.536;7.562;2022-10-19T02:02:09;1.60;;;1.30;;
50219;SDS011;36110;51.536;7.562;2022-10-19T02:04:35;1.73;;;1.40;;
50219;SDS011;36110;51.536;7.562;2022-10-19T02:07:02;1.25;;;1.15;;
50219;SDS011;36110;51.536;7.562;2022-10-19T02:09:28;1.50;;;1.40;;
50219;SDS011;36110;51.536;7.562;2022-10-19T02:11:55;1.25;;;1.20;;
50219;SDS011;36110;51.536;7.562;2022-10-19T02:14:22;2.10;;;1.30;;
50219;SDS011;36110;51.536;7.562;2022-10-19T02:16:52;1.50;;;1.27;;
50219;SDS011;36110;51.536;7.562;2022-10-19T02:19:21;1.73;;;1.30;;
50219;SDS011;36110;51.536;7.562;2022-10-19T02:21:46;1.55;;;1.30;;
50219;SDS011;36110;51.536;7.562;2022-10-19T02:24:12;1.40;;;1.30;;
50219;SDS011;36110;51.536;7.562;2022-10-19T02:26:37;1.30;;;1.20;;
50219;SDS011;36110;51.536;7.562;2022-10-19T02:29:03;3.15;;;1.40;;
50219;SDS011;36110;51.536;7.562;2022-10-19T02:31:28;1.38;;;1.20;;
50219;SDS011;36110;51.536;7.562;2022-10-19T02:33:54;1.75;;;1.65;;
50219;SDS011;36110;51.536;7.562;2022-10-19T02:36:19;1.48;;;1.38;;
50219;SDS011;36110;51.536;7.562;2022-10-19T02:38:45;2.05;;;1.30;;
50219;SDS011;36110;51.536;7.562;2022-10-19T02:41:14;1.45;;;1.35;;
50219;SDS011;36110;51.536;7.562;2022-10-19T02:43:43;2.45;;;1.30;;
50219;SDS011;36110;51.536;7.562;2022-10-19T02:46:19;1.20;;;1.10;;
50219;SDS011;36110;51.536;7.562;2022-10-19T02:48:48;1.30;;;1.20;;
50219;SDS011;36110;51.536;7.562;2022-10-19T02:53:57;1.90;;;1.40;;
50219;SDS011;36110;51.536;7.562;2022-10-19T02:56:23;1.52;;;1.40;;
50219;SDS011;36110;51.536;7.562;2022-10-19T02:58:48;1.42;;;1.20;;
50219;SDS011;36110;51.536;7.562;2022-10-19T03:01:13;1.35;;;1.25;;
50219;SDS011;36110;51.536;7.562;2022-10-19T03:03:39;1.50;;;1.40;;
50219;SDS011;36110;51.536;7.562;2022-10-19T03:06:04;1.48;;;1.30;;
50219;SDS011;36110;51.536;7.562;2022-10-19T03:08:29;1.48;;;1.38;;
50219;SDS011;36110;51.536;7.562;2022-10-19T03:10:57;2.25;;;1.45;;
50219;SDS011;36110;51.536;7.562;2022-10-19T03:13:22;1.70;;;1.30;;
50219;SDS011;36110;51.536;7.562;2022-10-19T03:15:48;2.03;;;1.50;;
50219;SDS011;36110;51.536;7.562;2022-10-19T03:18:14;2.03;;;1.45;;
50219;SDS011;36110;51.536;7.562;2022-10-19T03:20:39;1.30;;;1.20;;
50219;SDS011;36110;51.536;7.562;2022-10-19T03:23:04;1.40;;;1.30;;
50219;SDS011;36110;51.536;7.562;2022-10-19T03:25:30;1.30;;;1.20;;
50219;SDS011;36110;51.536;7.562;2022-10-19T03:27:55;1.40;;;1.30;;
50219;SDS011;36110;51.536;7.562;2022-10-19T03:30:20;1.10;;;1.10;;
50219;SDS011;36110;51.536;7.562;2022-10-19T03:32:46;1.55;;;1.35;;
50219;SDS011;36110;51.536;7.562;2022-10-19T03:35:11;1.30;;;1.20;;
50219;SDS011;36110;51.536;7.562;2022-10-19T03:37:36;1.88;;;1.20;;
50219;SDS011;36110;51.536;7.562;2022-10-19T03:40:02;1.30;;;1.20;;
50219;SDS011;36110;51.536;7.562;2022-10-19T03:42:27;1.33;;;1.20;;
50219;SDS011;36110;51.536;7.562;2022-10-19T03:44:52;1.58;;;1.40;;
50219;SDS011;36110;51.536;7.562;2022-10-19T03:47:18;1.50;;;1.40;;
50219;SDS011;36110;51.536;7.562;2022-10-19T03:49:43;1.17;;;1.10;;
50219;SDS011;36110;51.536;7.562;2022-10-19T03:52:08;1.83;;;1.40;;
50219;SDS011;36110;51.536;7.562;2022-10-19T03:54:34;1.58;;;1.30;;
50219;SDS011;36110;51.536;7.562;2022-10-19T03:56:59;1.23;;;1.15;;
50219;SDS011;36110;51.536;7.562;2022-10-19T03:59:24;3.88;;;1.42;;
50219;SDS011;36110;51.536;7.562;2022-10-19T04:01:50;1.30;;;1.20;;
50219;SDS011;36110;51.536;7.562;2022-10-19T04:04:16;1.83;;;1.40;;
50219;SDS011;36110;51.536;7.562;2022-10-19T04:06:45;1.20;;;1.10;;
50219;SDS011;36110;51.536;7.562;2022-10-19T04:09:12;1.40;;;1.30;;
50219;SDS011;36110;51.536;7.562;2022-10-19T04:11:39;1.33;;;1.23;;
50219;SDS011;36110;51.536;7.562;2022-10-19T04:14:05;1.17;;;1.15;;
50219;SDS011;36110;51.536;7.562;2022-10-19T04:16:31;1.30;;;1.20;;
50219;SDS011;36110;51.536;7.562;2022-10-19T04:18:57;1.30;;;1.20;;
50219;SDS011;36110;51.536;7.562;2022-10-19T04:21:33;1.55;;;1.45;;
50219;SDS011;36110;51.536;7.562;2022-10-19T04:24:00;1.33;;;1.23;;
50219;SDS011;36110;51.536;7.562;2022-10-19T04:26:27;1.27;;;1.17;;
50219;SDS011;36110;51.536;7.562;2022-10-19T04:28:52;1.40;;;1.30;;
50219;SDS011;36110;51.536;7.562;2022-10-19T04:31:18;1.23;;;1.13;;
50219;SDS011;36110;51.536;7.562;2022-10-19T04:33:43;1.30;;;1.20;;
50219;SDS011;36110;51.536;7.562;2022-10-19T04:36:09;1.33;;;1.23;;
50219;SDS011;36110;51.536;7.562;2022-10-19T04:38:35;1.40;;;1.30;;
50219;SDS011;36110;51.536;7.562;2022-10-19T04:41:19;1.25;;;1.15;;
50219;SDS011;36110;51.536;7.562;2022-10-19T04:43:46;1.73;;;1.38;;
50219;SDS011;36110;51.536;7.562;2022-10-19T04:46:12;1.30;;;1.20;;
50219;SDS011;36110;51.536;7.562;2022-10-19T04:48:39;1.27;;;1.20;;
50219;SDS011;36110;51.536;7.562;2022-10-19T04:51:04;1.50;;;1.40;;
50219;SDS011;36110;51.536;7.562;2022-10-19T04:53:30;1.58;;;1.30;;
50219;SDS011;36110;51.536;7.562;2022-10-19T04:55:56;1.50;;;1.05;;
50219;SDS011;36110;51.536;7.562;2022-10-19T04:58:21;1.33;;;1.20;;
50219;SDS011;36110;51.536;7.562;2022-10-19T05:00:47;1.50;;;1.40;;
50219;SDS011;36110;51.536;7.562;2022-10-19T05:03:12;1.38;;;1.30;;
50219;SDS011;36110;51.536;7.562;2022-10-19T05:05:38;2.72;;;1.90;;
50219;SDS011;36110;51.536;7.562;2022-10-19T05:08:03;1.73;;;1.27;;
50219;SDS011;36110;51.536;7.562;2022-10-19T05:10:28;1.27;;;1.17;;
50219;SDS011;36110;51.536;7.562;2022-10-19T05:12:54;5.88;;;3.40;;
50219;SDS011;36110;51.536;7.562;2022-10-19T05:15:19;2.03;;;1.83;;
50219;SDS011;36110;51.536;7.562;2022-10-19T05:17:45;2.53;;;1.98;;
50219;SDS011;36110;51.536;7.562;2022-10-19T05:20:10;3.40;;;2.40;;
50219;SDS011;36110;51.536;7.562;2022-10-19T05:22:36;1.33;;;1.23;;
50219;SDS011;36110;51.536;7.562;2022-10-19T05:25:02;1.92;;;1.42;;
50219;SDS011;36110;51.536;7.562;2022-10-19T05:27:28;1.58;;;1.48;;
50219;SDS011;36110;51.536;7.562;2022-10-19T05:29:53;1.30;;;1.20;;
50219;SDS011;36110;51.536;7.562;2022-10-19T05:32:18;2.13;;;1.83;;
50219;SDS011;36110;51.536;7.562;2022-10-19T05:34:44;2.35;;;2.03;;
50219;SDS011;36110;51.536;7.562;2022-10-19T05:37:09;1.58;;;1.48;;
50219;SDS011;36110;51.536;7.562;2022-10-19T05:39:34;10.45;;;5.10;;
50219;SDS011;36110;51.536;7.562;2022-10-19T05:41:59;7.88;;;4.97;;
50219;SDS011;36110;51.536;7.562;2022-10-19T05:44:25;8.20;;;5.53;;
50219;SDS011;36110;51.536;7.562;2022-10-19T05:46:50;8.82;;;5.63;;
50219;SDS011;36110;51.536;7.562;2022-10-19T05:49:16;5.80;;;5.00;;
50219;SDS011;36110;51.536;7.562;2022-10-19T05:51:43;8.25;;;4.93;;
50219;SDS011;36110;51.536;7.562;2022-10-19T05:54:08;7.80;;;4.55;;
50219;SDS011;36110;51.536;7.562;2022-10-19T05:56:34;6.80;;;4.25;;
50219;SDS011;36110;51.536;7.562;2022-10-19T05:59:01;10.27;;;4.38;;
50219;SDS011;36110;51.536;7.562;2022-10-19T06:01:28;5.03;;;4.40;;
50219;SDS011;36110;51.536;7.562;2022-10-19T06:03:55;5.30;;;3.95;;
50219;SDS011;36110;51.536;7.562;2022-10-19T06:06:21;4.30;;;3.88;;
50219;SDS011;36110;51.536;7.562;2022-10-19T06:08:47;4.43;;;3.92;;
50219;SDS011;36110;51.536;7.562;2022-10-19T06:11:17;5.18;;;4.15;;
50219;SDS011;36110;51.536;7.562;2022-10-19T06:13:44;5.63;;;4.20;;
50219;SDS011;36110;51.536;7.562;2022-10-19T06:16:11;4.35;;;3.80;;
50219;SDS011;36110;51.536;7.562;2022-10-19T06:18:38;5.88;;;3.70;;
50219;SDS011;36110;51.536;7.562;2022-10-19T06:21:04;7.32;;;3.97;;
50219;SDS011;36110;51.536;7.562;2022-10-19T06:23:32;4.13;;;3.67;;
50219;SDS011;36110;51.536;7.562;2022-10-19T06:25:58;4.45;;;3.30;;
50219;SDS011;36110;51.536;7.562;2022-10-19T06:28:26;4.22;;;3.47;;
50219;SDS011;36110;51.536;7.562;2022-10-19T06:30:51;4.00;;;3.60;;
50219;SDS011;36110;51.536;7.562;2022-10-19T06:33:17;5.15;;;3.65;;
50219;SDS011;36110;51.536;7.562;2022-10-19T06:35:42;5.57;;;3.38;;
50219;SDS011;36110;51.536;7.562;2022-10-19T06:38:08;4.90;;;3.05;;
50219;SDS011;36110;51.536;7.562;2022-10-19T06:40:33;6.35;;;3.58;;
50219;SDS011;36110;51.536;7.562;2022-10-19T06:42:59;5.82;;;2.90;;
50219;SDS011;36110;51.536;7.562;2022-10-19T06:45:24;5.90;;;2.95;;
50219;SDS011;36110;51.536;7.562;2022-10-19T06:47:50;5.60;;;3.05;;
50219;SDS011;36110;51.536;7.562;2022-10-19T06:50:15;6.18;;;3.35;;
50219;SDS011;36110;51.536;7.562;2022-10-19T06:52:40;4.55;;;2.90;;
50219;SDS011;36110;51.536;7.562;2022-10-19T06:55:06;4.85;;;3.00;;
50219;SDS011;36110;51.536;7.562;2022-10-19T06:57:32;3.58;;;2.80;;
50219;SDS011;36110;51.536;7.562;2022-10-19T06:59:57;8.80;;;3.42;;
50219;SDS011;36110;51.536;7.562;2022-10-19T07:02:23;5.30;;;2.80;;
50219;SDS011;36110;51.536;7.562;2022-10-19T07:04:48;4.75;;;2.85;;
50219;SDS011;36110;51.536;7.562;2022-10-19T07:07:13;4.72;;;2.88;;
50219;SDS011;36110;51.536;7.562;2022-10-19T07:09:39;3.83;;;2.42;;
50219;SDS011;36110;51.536;7.562;2022-10-19T07:12:04;3.72;;;2.42;;
50219;SDS011;36110;51.536;7.562;2022-10-19T07:14:29;10.73;;;2.78;;
50219;SDS011;36110;51.536;7.562;2022-10-19T07:16:55;5.18;;;2.33;;
50219;SDS011;36110;51.536;7.562;2022-10-19T07:19:21;8.60;;;4.22;;
50219;SDS011;36110;51.536;7.562;2022-10-19T07:21:49;8.45;;;5.45;;
50219;SDS011;36110;51.536;7.562;2022-10-19T07:24:15;6.32;;;3.65;;
50219;SDS011;36110;51.536;7.562;2022-10-19T07:26:40;3.70;;;3.10;;
50219;SDS011;36110;51.536;7.562;2022-10-19T07:29:05;7.45;;;3.03;;
50219;SDS011;36110;51.536;7.562;2022-10-19T07:31:31;6.55;;;3.35;;
50219;SDS011;36110;51.536;7.562;2022-10-19T07:33:57;4.10;;;2.83;;
50219;SDS011;36110;51.536;7.562;2022-10-19T07:36:24;2.55;;;2.00;;
50219;SDS011;36110;51.536;7.562;2022-10-19T07:38:51;4.47;;;2.50;;
50219;SDS011;36110;51.536;7.562;2022-10-19T07:41:17;2.42;;;2.15;;
50219;SDS011;36110;51.536;7.562;2022-10-19T07:43:44;2.97;;;2.20;;
50219;SDS011;36110;51.536;7.562;2022-10-19T07:46:11;3.60;;;2.30;;
50219;SDS011;36110;51.536;7.562;2022-10-19T07:48:44;9.82;;;5.45;;
50219;SDS011;36110;51.536;7.562;2022-10-19T07:51:10;3.25;;;2.53;;
50219;SDS011;36110;51.536;7.562;2022-10-19T07:53:39;3.65;;;2.50;;
50219;SDS011;36110;51.536;7.562;2022-10-19T07:58:37;2.83;;;2.30;;
50219;SDS011;36110;51.536;7.562;2022-10-19T08:01:03;7.75;;;4.45;;
50219;SDS011;36110;51.536;7.562;2022-10-19T08:03:31;2.53;;;2.10;;
50219;SDS011;36110;51.536;7.562;2022-10-19T08:06:00;2.53;;;2.28;;
50219;SDS011;36110;51.536;7.562;2022-10-19T08:08:26;3.28;;;2.13;;
50219;SDS011;36110;51.536;7.562;2022-10-19T08:10:52;11.15;;;5.97;;
50219;SDS011;36110;51.536;7.562;2022-10-19T08:13:17;2.97;;;2.20;;
50219;SDS011;36110;51.536;7.562;2022-10-19T08:15:43;2.75;;;2.33;;
50219;SDS011;36110;51.536;7.562;2022-10-19T08:18:08;5.88;;;3.75;;
50219;SDS011;36110;51.536;7.562;2022-10-19T08:20:33;3.17;;;2.67;;
50219;SDS011;36110;51.536;7.562;2022-10-19T08:22:59;2.72;;;2.40;;
50219;SDS011;36110;51.536;7.562;2022-10-19T08:25:26;6.15;;;3.35;;
50219;SDS011;36110;51.536;7.562;2022-10-19T08:27:51;10.85;;;5.68;;
50219;SDS011;36110;51.536;7.562;2022-10-19T08:30:16;1.95;;;1.77;;
50219;SDS011;36110;51.536;7.562;2022-10-19T08:32:42;6.20;;;3.78;;
50219;SDS011;36110;51.536;7.562;2022-10-19T08:35:07;4.40;;;2.13;;
50219;SDS011;36110;51.536;7.562;2022-10-19T08:37:32;8.75;;;4.90;;
50219;SDS011;36110;51.536;7.562;2022-10-19T08:39:58;11.43;;;7.13;;
50219;SDS011;36110;51.536;7.562;2022-10-19T08:42:24;10.35;;;6.28;;
50219;SDS011;36110;51.536;7.562;2022-10-19T08:50:40;16.65;;;9.50;;
50219;SDS011;36110;51.536;7.562;2022-10-19T08:53:10;3.45;;;2.63;;
50219;SDS011;36110;51.536;7.562;2022-10-19T08:58:11;4.18;;;2.95;;
50219;SDS011;36110;51.536;7.562;2022-10-19T09:00:48;10.18;;;6.28;;
50219;SDS011;36110;51.536;7.562;2022-10-19T09:03:38;10.27;;;5.72;;
50219;SDS011;36110;51.536;7.562;2022-10-19T09:06:24;14.73;;;8.95;;
50219;SDS011;36110;51.536;7.562;2022-10-19T09:08:56;15.40;;;9.48;;
50219;SDS011;36110;51.536;7.562;2022-10-19T09:11:23;17.33;;;9.27;;
50219;SDS011;36110;51.536;7.562;2022-10-19T09:13:54;13.63;;;6.93;;
50219;SDS011;36110;51.536;7.562;2022-10-19T09:16:24;14.38;;;9.07;;
50219;SDS011;36110;51.536;7.562;2022-10-19T09:18:49;14.13;;;8.30;;
50219;SDS011;36110;51.536;7.562;2022-10-19T09:21:17;8.57;;;4.78;;
50219;SDS011;36110;51.536;7.562;2022-10-19T09:23:56;16.58;;;7.93;;
50219;SDS011;36110;51.536;7.562;2022-10-19T09:26:28;2.13;;;2.00;;
50219;SDS011;36110;51.536;7.562;2022-10-19T09:29:00;12.77;;;6.00;;
50219;SDS011;36110;51.536;7.562;2022-10-19T09:31:30;14.15;;;6.80;;
50219;SDS011;36110;51.536;7.562;2022-10-19T09:34:01;11.40;;;6.40;;
50219;SDS011;36110;51.536;7.562;2022-10-19T09:36:37;8.30;;;4.20;;
50219;SDS011;36110;51.536;7.562;2022-10-19T09:39:05;9.50;;;6.43;;
50219;SDS011;36110;51.536;7.562;2022-10-19T09:41:30;8.05;;;4.18;;
50219;SDS011;36110;51.536;7.562;2022-10-19T09:43:56;8.35;;;5.00;;
50219;SDS011;36110;51.536;7.562;2022-10-19T09:46:26;14.80;;;5.45;;
50219;SDS011;36110;51.536;7.562;2022-10-19T09:49:16;14.23;;;4.80;;
50219;SDS011;36110;51.536;7.562;2022-10-19T09:51:46;8.30;;;4.05;;
50219;SDS011;36110;51.536;7.562;2022-10-19T09:54:22;2.75;;;2.28;;
50219;SDS011;36110;51.536;7.562;2022-10-19T09:56:54;7.68;;;3.60;;
50219;SDS011;36110;51.536;7.562;2022-10-19T09:59:21;9.15;;;4.32;;
50219;SDS011;36110;51.536;7.562;2022-10-19T10:01:48;5.53;;;2.90;;
50219;SDS011;36110;51.536;7.562;2022-10-19T10:04:45;7.97;;;3.60;;
50219;SDS011;36110;51.536;7.562;2022-10-19T10:07:33;5.55;;;3.20;;
50219;SDS011;36110;51.536;7.562;2022-10-19T10:10:01;6.43;;;2.75;;
50219;SDS011;36110;51.536;7.562;2022-10-19T10:12:33;11.02;;;3.53;;
50219;SDS011;36110;51.536;7.562;2022-10-19T10:14:59;7.07;;;2.72;;
50219;SDS011;36110;51.536;7.562;2022-10-19T10:17:28;1.80;;;1.70;;
50219;SDS011;36110;51.536;7.562;2022-10-19T10:22:24;6.63;;;3.20;;
50219;SDS011;36110;51.536;7.562;2022-10-19T10:24:52;7.13;;;2.90;;
50219;SDS011;36110;51.536;7.562;2022-10-19T10:27:28;5.47;;;2.60;;
50219;SDS011;36110;51.536;7.562;2022-10-19T10:29:54;11.35;;;3.10;;
50219;SDS011;36110;51.536;7.562;2022-10-19T10:32:20;3.60;;;2.45;;
50219;SDS011;36110;51.536;7.562;2022-10-19T10:34:46;10.68;;;3.63;;
50219;SDS011;36110;51.536;7.562;2022-10-19T10:37:23;8.18;;;3.30;;
50219;SDS011;36110;51.536;7.562;2022-10-19T10:39:55;5.75;;;3.00;;
50219;SDS011;36110;51.536;7.562;2022-10-19T10:42:25;13.60;;;3.50;;
50219;SDS011;36110;51.536;7.562;2022-10-19T10:44:53;8.07;;;3.20;;
50219;SDS011;36110;51.536;7.562;2022-10-19T10:47:20;8.10;;;2.83;;
50219;SDS011;36110;51.536;7.562;2022-10-19T10:49:52;9.38;;;2.25;;
50219;SDS011;36110;51.536;7.562;2022-10-19T10:52:19;6.50;;;2.10;;
50219;SDS011;36110;51.536;7.562;2022-10-19T10:55:17;2.42;;;1.58;;
50219;SDS011;36110;51.536;7.562;2022-10-19T10:57:43;8.10;;;1.95;;
50219;SDS011;36110;51.536;7.562;2022-10-19T11:07:51;5.47;;;2.03;;
50219;SDS011;36110;51.536;7.562;2022-10-19T11:10:22;2.65;;;1.58;;
50219;SDS011;36110;51.536;7.562;2022-10-19T11:13:11;7.93;;;1.75;;
50219;SDS011;36110;51.536;7.562;2022-10-19T11:16:01;4.25;;;1.75;;
50219;SDS011;36110;51.536;7.562;2022-10-19T11:21:03;6.53;;;1.80;;
50219;SDS011;36110;51.536;7.562;2022-10-19T11:23:35;3.67;;;1.73;;
50219;SDS011;36110;51.536;7.562;2022-10-19T11:45:30;4.93;;;1.77;;
50219;SDS011;36110;51.536;7.562;2022-10-19T12:01:43;7.82;;;2.10;;
50219;SDS011;36110;51.536;7.562;2022-10-19T12:04:22;4.78;;;2.25;;
50219;SDS011;36110;51.536;7.562;2022-10-19T12:14:57;11.68;;;3.50;;
50219;SDS011;36110;51.536;7.562;2022-10-19T12:17:30;10.57;;;2.80;;
50219;SDS011;36110;51.536;7.562;2022-10-19T12:19:59;4.30;;;1.77;;
50219;SDS011;36110;51.536;7.562;2022-10-19T12:22:27;3.92;;;2.03;;
50219;SDS011;36110;51.536;7.562;2022-10-19T12:24:54;5.50;;;1.95;;
50219;SDS011;36110;51.536;7.562;2022-10-19T12:27:33;5.10;;;1.95;;
50219;SDS011;36110;51.536;7.562;2022-10-19T12:30:01;5.55;;;2.70;;
50219;SDS011;36110;51.536;7.562;2022-10-19T12:32:36;7.07;;;2.70;;
50219;SDS011;36110;51.536;7.562;2022-10-19T12:35:15;3.60;;;1.60;;
50219;SDS011;36110;51.536;7.562;2022-10-19T12:37:49;4.22;;;1.70;;
50219;SDS011;36110;51.536;7.562;2022-10-19T12:55:40;6.55;;;2.25;;
50219;SDS011;36110;51.536;7.562;2022-10-19T12:58:14;6.88;;;2.20;;
50219;SDS011;36110;51.536;7.562;2022-10-19T13:00:44;8.68;;;2.50;;
50219;SDS011;36110;51.536;7.562;2022-10-19T13:03:22;4.50;;;1.95;;
50219;SDS011;36110;51.536;7.562;2022-10-19T13:05:59;8.23;;;2.25;;
50219;SDS011;36110;51.536;7.562;2022-10-19T13:08:31;3.47;;;1.90;;
50219;SDS011;36110;51.536;7.562;2022-10-19T13:11:06;7.05;;;2.10;;
50219;SDS011;36110;51.536;7.562;2022-10-19T13:13:55;4.35;;;2.00;;
50219;SDS011;36110;51.536;7.562;2022-10-19T13:16:39;6.10;;;2.00;;
50219;SDS011;36110;51.536;7.562;2022-10-19T13:19:20;5.63;;;2.00;;
50219;SDS011;36110;51.536;7.562;2022-10-19T13:21:49;4.50;;;1.98;;
50219;SDS011;36110;51.536;7.562;2022-10-19T13:24:19;6.93;;;1.85;;
50219;SDS011;36110;51.536;7.562;2022-10-19T13:34:54;6.35;;;1.90;;
50219;SDS011;36110;51.536;7.562;2022-10-19T13:37:19;6.07;;;1.98;;
50219;SDS011;36110;51.536;7.562;2022-10-19T13:39:45;3.88;;;1.50;;
50219;SDS011;36110;51.536;7.562;2022-10-19T13:42:44;6.10;;;1.60;;
50219;SDS011;36110;51.536;7.562;2022-10-19T13:45:03;7.30;;;1.83;;
50219;SDS011;36110;51.536;7.562;2022-10-19T13:47:36;7.07;;;1.85;;
50219;SDS011;36110;51.536;7.562;2022-10-19T13:50:21;8.30;;;2.30;;
50219;SDS011;36110;51.536;7.562;2022-10-19T13:52:54;4.90;;;1.67;;
50219;SDS011;36110;51.536;7.562;2022-10-19T14:01:04;6.10;;;1.23;;
50219;SDS011;36110;51.536;7.562;2022-10-19T14:06:27;6.88;;;1.40;;
50219;SDS011;36110;51.536;7.562;2022-10-19T14:09:04;5.38;;;1.27;;
50219;SDS011;36110;51.536;7.562;2022-10-19T14:11:35;3.33;;;1.30;;
50219;SDS011;36110;51.536;7.562;2022-10-19T14:16:31;4.45;;;1.30;;
50219;SDS011;36110;51.536;7.562;2022-10-19T14:18:56;3.65;;;1.40;;
50219;SDS011;36110;51.536;7.562;2022-10-19T14:21:31;3.28;;;1.20;;
50219;SDS011;36110;51.536;7.562;2022-10-19T14:23:58;7.43;;;1.80;;
50219;SDS011;36110;51.536;7.562;2022-10-19T14:26:26;7.10;;;1.63;;
50219;SDS011;36110;51.536;7.562;2022-10-19T14:28:55;6.47;;;2.08;;
50219;SDS011;36110;51.536;7.562;2022-10-19T14:31:33;4.18;;;1.30;;
50219;SDS011;36110;51.536;7.562;2022-10-19T14:34:00;3.75;;;1.52;;
50219;SDS011;36110;51.536;7.562;2022-10-19T14:36:30;5.88;;;1.27;;
50219;SDS011;36110;51.536;7.562;2022-10-19T14:38:58;6.15;;;1.73;;
50219;SDS011;36110;51.536;7.562;2022-10-19T14:43:52;3.30;;;1.33;;
50219;SDS011;36110;51.536;7.562;2022-10-19T14:46:24;4.60;;;1.23;;
50219;SDS011;36110;51.536;7.562;2022-10-19T14:48:50;3.92;;;1.23;;
50219;SDS011;36110;51.536;7.562;2022-10-19T14:59:23;4.40;;;1.60;;
50219;SDS011;36110;51.536;7.562;2022-10-19T15:01:52;5.72;;;1.40;;
50219;SDS011;36110;51.536;7.562;2022-10-19T15:04:19;5.72;;;1.00;;
50219;SDS011;36110;51.536;7.562;2022-10-19T15:06:48;3.30;;;1.30;;
50219;SDS011;36110;51.536;7.562;2022-10-19T15:09:27;3.28;;;1.27;;
50219;SDS011;36110;51.536;7.562;2022-10-19T15:11:57;4.57;;;1.55;;
50219;SDS011;36110;51.536;7.562;2022-10-19T15:14:33;4.10;;;1.58;;
50219;SDS011;36110;51.536;7.562;2022-10-19T15:17:02;3.28;;;1.35;;
50219;SDS011;36110;51.536;7.562;2022-10-19T15:24:58;1.77;;;1.17;;
50219;SDS011;36110;51.536;7.562;2022-10-19T15:27:32;3.30;;;1.55;;
50219;SDS011;36110;51.536;7.562;2022-10-19T15:30:05;8.25;;;1.60;;
50219;SDS011;36110;51.536;7.562;2022-10-19T15:32:49;5.10;;;1.67;;
50219;SDS011;36110;51.536;7.562;2022-10-19T15:35:36;2.83;;;1.20;;
50219;SDS011;36110;51.536;7.562;2022-10-19T15:38:04;5.60;;;2.25;;
50219;SDS011;36110;51.536;7.562;2022-10-19T15:40:40;5.18;;;1.58;;
50219;SDS011;36110;51.536;7.562;2022-10-19T15:46:00;1.80;;;1.25;;
50219;SDS011;36110;51.536;7.562;2022-10-19T15:54:02;6.18;;;2.10;;
50219;SDS011;36110;51.536;7.562;2022-10-19T15:56:30;5.70;;;1.90;;
50219;SDS011;36110;51.536;7.562;2022-10-19T15:58:57;5.20;;;2.28;;
50219;SDS011;36110;51.536;7.562;2022-10-19T16:01:24;3.97;;;2.05;;
50219;SDS011;36110;51.536;7.562;2022-10-19T16:03:50;5.28;;;2.15;;
50219;SDS011;36110;51.536;7.562;2022-10-19T16:06:16;5.07;;;1.80;;
50219;SDS011;36110;51.536;7.562;2022-10-19T16:08:42;5.38;;;1.90;;
50219;SDS011;36110;51.536;7.562;2022-10-19T16:11:14;7.00;;;1.67;;
50219;SDS011;36110;51.536;7.562;2022-10-19T16:13:40;4.45;;;2.00;;
50219;SDS011;36110;51.536;7.562;2022-10-19T16:16:06;6.03;;;2.00;;
50219;SDS011;36110;51.536;7.562;2022-10-19T16:18:34;5.88;;;2.15;;
50219;SDS011;36110;51.536;7.562;2022-10-19T16:20:59;4.78;;;1.85;;
50219;SDS011;36110;51.536;7.562;2022-10-19T16:23:25;4.60;;;2.03;;
50219;SDS011;36110;51.536;7.562;2022-10-19T16:25:51;5.68;;;2.10;;
50219;SDS011;36110;51.536;7.562;2022-10-19T16:28:20;4.43;;;2.00;;
50219;SDS011;36110;51.536;7.562;2022-10-19T16:30:50;7.25;;;2.22;;
50219;SDS011;36110;51.536;7.562;2022-10-19T16:33:16;3.15;;;1.73;;
50219;SDS011;36110;51.536;7.562;2022-10-19T16:35:44;4.68;;;1.70;;
50219;SDS011;36110;51.536;7.562;2022-10-19T16:38:10;6.55;;;2.15;;
50219;SDS011;36110;51.536;7.562;2022-10-19T16:40:36;7.05;;;2.00;;
50219;SDS011;36110;51.536;7.562;2022-10-19T16:43:04;3.95;;;1.73;;
50219;SDS011;36110;51.536;7.562;2022-10-19T16:45:30;4.85;;;2.30;;
50219;SDS011;36110;51.536;7.562;2022-10-19T16:47:55;12.45;;;2.33;;
50219;SDS011;36110;51.536;7.562;2022-10-19T16:50:21;5.82;;;2.03;;
50219;SDS011;36110;51.536;7.562;2022-10-19T16:52:46;7.30;;;2.10;;
50219;SDS011;36110;51.536;7.562;2022-10-19T16:55:54;4.95;;;1.98;;
50219;SDS011;36110;51.536;7.562;2022-10-19T16:58:28;4.85;;;1.83;;
50219;SDS011;36110;51.536;7.562;2022-10-19T17:00:53;6.43;;;2.30;;
50219;SDS011;36110;51.536;7.562;2022-10-19T17:03:20;3.25;;;1.63;;
50219;SDS011;36110;51.536;7.562;2022-10-19T17:05:46;2.00;;;1.40;;
50219;SDS011;36110;51.536;7.562;2022-10-19T17:08:11;6.95;;;2.30;;
50219;SDS011;36110;51.536;7.562;2022-10-19T17:10:36;3.40;;;1.45;;
50219;SDS011;36110;51.536;7.562;2022-10-19T17:13:02;1.40;;;1.10;;